createdAt,value
2019-03-24T00:02:01.936Z,6.90
2019-03-24T00:04:32.150Z,6.80
2019-03-24T00:07:02.457Z,6.80
2019-03-24T00:09:32.650Z,6.70
2019-03-24T00:12:02.886Z,6.70
2019-03-24T00:14:33.670Z,6.60
2019-03-24T00:17:03.938Z,6.60
2019-03-24T00:19:34.121Z,6.60
2019-03-24T00:22:05.266Z,6.60
2019-03-24T00:24:35.621Z,6.50
2019-03-24T00:27:05.826Z,6.50
2019-03-24T00:29:36.009Z,6.50
2019-03-24T00:32:06.426Z,6.50
2019-03-24T00:34:36.601Z,6.50
2019-03-24T00:37:06.802Z,6.50
2019-03-24T00:39:37.197Z,6.50
2019-03-24T00:42:07.409Z,6.50
2019-03-24T00:44:38.094Z,6.50
2019-03-24T00:47:08.308Z,6.40
2019-03-24T00:49:38.685Z,6.40
2019-03-24T00:52:09.546Z,6.30
2019-03-24T00:54:39.733Z,6.40
2019-03-24T00:57:09.945Z,6.40
2019-03-24T00:59:40.133Z,6.50
2019-03-24T01:02:10.405Z,6.50
2019-03-24T01:04:40.586Z,6.50
2019-03-24T01:07:10.797Z,6.50
2019-03-24T01:09:41.028Z,6.40
2019-03-24T01:12:11.229Z,6.40
2019-03-24T01:14:41.429Z,6.40
2019-03-24T01:17:11.629Z,6.20
2019-03-24T01:19:41.817Z,6.20
2019-03-24T01:22:12.066Z,6.20
2019-03-24T01:24:42.212Z,6.20
2019-03-24T01:27:12.625Z,6.10
2019-03-24T01:29:42.797Z,6.10
2019-03-24T01:32:13.007Z,6.10
2019-03-24T01:34:44.373Z,6.10
2019-03-24T01:37:14.675Z,6.00
2019-03-24T01:39:44.972Z,5.90
2019-03-24T01:42:15.457Z,5.90
2019-03-24T01:44:45.745Z,5.90
2019-03-24T01:47:16.142Z,5.80
2019-03-24T01:49:46.429Z,5.80
2019-03-24T01:52:16.742Z,5.80
2019-03-24T01:54:47.030Z,5.70
2019-03-24T01:57:17.437Z,5.70
2019-03-24T01:59:47.802Z,5.60
2019-03-24T02:02:18.215Z,5.60
2019-03-24T02:04:48.505Z,5.60
2019-03-24T02:07:18.720Z,5.60
2019-03-24T02:09:48.974Z,5.60
2019-03-24T02:12:19.465Z,5.70
2019-03-24T02:14:49.638Z,5.70
2019-03-24T02:17:20.045Z,5.80
2019-03-24T02:19:50.283Z,5.80
2019-03-24T02:22:20.508Z,5.80
2019-03-24T02:24:50.893Z,5.80
2019-03-24T02:27:21.385Z,5.80
2019-03-24T02:29:51.575Z,5.80
2019-03-24T02:32:22.096Z,5.80
2019-03-24T02:34:52.266Z,5.80
2019-03-24T02:37:22.483Z,5.70
2019-03-24T02:39:52.654Z,5.60
2019-03-24T02:42:23.064Z,5.60
2019-03-24T02:44:53.475Z,5.60
2019-03-24T02:47:23.702Z,5.60
2019-03-24T02:49:53.970Z,5.60
2019-03-24T02:52:24.218Z,5.60
2019-03-24T02:54:54.415Z,5.60
2019-03-24T02:57:24.722Z,5.60
2019-03-24T02:59:54.914Z,5.60
2019-03-24T03:02:25.203Z,5.60
2019-03-24T03:04:55.511Z,5.60
2019-03-24T03:07:25.719Z,5.60
2019-03-24T03:09:56.010Z,5.60
2019-03-24T03:12:26.457Z,5.50
2019-03-24T03:14:56.936Z,5.50
2019-03-24T03:17:27.113Z,5.40
2019-03-24T03:19:57.452Z,5.40
2019-03-24T03:22:27.911Z,5.30
2019-03-24T03:24:58.225Z,5.30
2019-03-24T03:27:28.414Z,5.20
2019-03-24T03:29:58.621Z,5.20
2019-03-24T03:32:29.070Z,5.30
2019-03-24T03:34:59.261Z,5.20
2019-03-24T03:37:30.230Z,5.30
2019-03-24T03:40:00.861Z,5.20
2019-03-24T03:42:31.499Z,5.10
2019-03-24T03:45:01.695Z,5.10
2019-03-24T03:47:31.874Z,5.00
2019-03-24T03:50:02.146Z,5.10
2019-03-24T03:52:32.308Z,5.10
2019-03-24T03:55:02.675Z,5.10
2019-03-24T03:57:32.959Z,5.10
2019-03-24T04:00:04.540Z,5.00
2019-03-24T04:02:34.727Z,4.90
2019-03-24T04:05:06.179Z,4.90
2019-03-24T04:07:36.363Z,4.90
2019-03-24T04:10:07.207Z,5.00
2019-03-24T04:12:38.086Z,5.00
2019-03-24T04:15:08.834Z,4.90
2019-03-24T04:17:39.026Z,4.90
2019-03-24T04:20:09.613Z,4.80
2019-03-24T04:22:39.793Z,4.80
2019-03-24T04:25:10.244Z,4.80
2019-03-24T04:27:40.627Z,4.90
2019-03-24T04:30:12.209Z,4.80
2019-03-24T04:32:42.402Z,4.80
2019-03-24T04:35:12.850Z,4.80
2019-03-24T04:37:43.139Z,4.80
2019-03-24T04:40:13.412Z,4.80
2019-03-24T04:42:43.591Z,4.80
2019-03-24T04:45:13.954Z,4.70
2019-03-24T04:47:44.246Z,4.70
2019-03-24T04:50:14.687Z,4.70
2019-03-24T04:52:44.978Z,4.70
2019-03-24T04:55:15.360Z,4.60
2019-03-24T04:57:45.810Z,4.60
2019-03-24T05:00:16.862Z,4.60
2019-03-24T05:02:47.346Z,4.60
2019-03-24T05:05:17.672Z,4.60
2019-03-24T05:07:48.293Z,4.60
2019-03-24T05:10:28.570Z,4.60
2019-03-24T05:12:59.129Z,4.50
2019-03-24T05:15:29.330Z,4.50
2019-03-24T05:17:59.509Z,4.50
2019-03-24T05:20:29.783Z,4.50
2019-03-24T05:23:00.173Z,4.40
2019-03-24T05:25:30.481Z,4.40
2019-03-24T05:28:01.069Z,4.40
2019-03-24T05:30:31.381Z,4.40
2019-03-24T05:33:02.061Z,4.40
2019-03-24T05:35:32.369Z,4.50
2019-03-24T05:38:02.662Z,4.50
2019-03-24T05:40:32.877Z,4.50
2019-03-24T05:43:03.065Z,4.40
2019-03-24T05:45:33.284Z,4.40
2019-03-24T05:48:03.471Z,4.40
2019-03-24T05:50:34.105Z,4.40
2019-03-24T05:53:04.454Z,4.40
2019-03-24T05:55:34.670Z,4.40
2019-03-24T05:58:05.325Z,4.40
2019-03-24T06:00:35.538Z,4.40
2019-03-24T06:03:05.718Z,4.40
2019-03-24T06:05:38.854Z,4.40
2019-03-24T06:08:09.368Z,4.50
2019-03-24T06:10:39.586Z,4.50
2019-03-24T06:13:10.184Z,4.50
2019-03-24T06:15:40.493Z,4.50
2019-03-24T06:18:10.667Z,4.50
2019-03-24T06:20:40.937Z,4.70
2019-03-24T06:23:11.189Z,4.80
2019-03-24T06:25:41.410Z,4.90
2019-03-24T06:28:11.702Z,5.00
2019-03-24T06:30:42.313Z,5.10
2019-03-24T06:33:12.512Z,5.20
2019-03-24T06:35:42.725Z,5.40
2019-03-24T06:38:13.022Z,5.50
2019-03-24T06:40:43.215Z,5.60
2019-03-24T06:43:13.602Z,5.80
2019-03-24T06:45:43.814Z,5.80
2019-03-24T06:48:13.999Z,5.90
2019-03-24T06:50:44.297Z,5.80
2019-03-24T06:53:14.673Z,5.70
2019-03-24T06:55:44.991Z,5.70
2019-03-24T06:58:15.350Z,5.80
2019-03-24T07:00:45.539Z,5.90
2019-03-24T07:03:17.676Z,6.20
2019-03-24T07:05:47.906Z,6.30
2019-03-24T07:08:18.199Z,6.40
2019-03-24T07:10:48.509Z,6.50
2019-03-24T07:13:18.694Z,6.50
2019-03-24T07:15:49.115Z,6.60
2019-03-24T07:18:19.406Z,6.70
2019-03-24T07:20:49.636Z,6.70
2019-03-24T07:23:19.827Z,6.80
2019-03-24T07:25:50.498Z,6.80
2019-03-24T07:28:20.681Z,6.90
2019-03-24T07:30:50.902Z,7.00
2019-03-24T07:33:21.362Z,7.00
2019-03-24T07:35:52.698Z,7.10
2019-03-24T07:38:23.782Z,7.20
2019-03-24T07:40:54.482Z,7.20
2019-03-24T07:43:24.761Z,7.30
2019-03-24T07:45:54.982Z,7.40
2019-03-24T07:48:25.873Z,7.40
2019-03-24T07:50:56.082Z,7.40
2019-03-24T07:53:26.737Z,7.40
2019-03-24T07:55:56.965Z,7.40
2019-03-24T07:58:27.258Z,7.50
2019-03-24T08:00:57.675Z,7.50
2019-03-24T08:03:28.131Z,7.60
2019-03-24T08:05:58.323Z,7.50
2019-03-24T08:08:28.737Z,7.40
2019-03-24T08:10:59.147Z,7.50
2019-03-24T08:13:29.454Z,7.50
2019-03-24T08:15:59.650Z,7.50
2019-03-24T08:18:30.386Z,7.60
2019-03-24T08:21:00.663Z,7.70
2019-03-24T08:23:31.078Z,7.80
2019-03-24T08:26:01.271Z,7.80
2019-03-24T08:28:32.207Z,7.80
2019-03-24T08:31:02.565Z,7.80
2019-03-24T08:33:32.795Z,7.90
2019-03-24T08:36:03.086Z,7.90
2019-03-24T08:38:33.293Z,8.00
2019-03-24T08:41:03.662Z,8.10
2019-03-24T08:43:33.877Z,8.10
2019-03-24T08:46:04.182Z,8.20
2019-03-24T08:48:40.785Z,8.30
2019-03-24T08:51:06.228Z,8.40
2019-03-24T08:53:36.553Z,8.40
2019-03-24T08:56:06.773Z,8.50
2019-03-24T08:58:37.057Z,8.50
2019-03-24T09:01:07.254Z,8.60
2019-03-24T09:03:37.451Z,8.60
2019-03-24T09:06:07.741Z,8.70
2019-03-24T09:08:37.958Z,8.90
2019-03-24T09:11:08.245Z,9.10
2019-03-24T09:13:38.463Z,9.10
2019-03-24T09:16:08.857Z,9.10
2019-03-24T09:18:39.173Z,9.10
2019-03-24T09:21:09.462Z,9.20
2019-03-24T09:23:39.671Z,9.20
2019-03-24T09:26:09.957Z,9.20
2019-03-24T09:28:40.175Z,9.30
2019-03-24T09:31:10.553Z,9.40
2019-03-24T09:33:40.771Z,9.40
2019-03-24T09:36:11.061Z,9.50
2019-03-24T09:38:41.361Z,9.50
2019-03-24T09:41:11.648Z,9.60
2019-03-24T09:43:42.066Z,9.60
2019-03-24T09:46:12.242Z,9.60
2019-03-24T09:48:42.462Z,9.60
2019-03-24T09:51:12.766Z,9.70
2019-03-24T09:53:43.098Z,9.80
2019-03-24T09:56:13.595Z,9.90
2019-03-24T09:58:43.816Z,9.90
2019-03-24T10:01:14.005Z,9.90
2019-03-24T10:03:44.229Z,10.00
2019-03-24T10:06:14.654Z,10.00
2019-03-24T10:08:47.228Z,10.10
2019-03-24T10:11:16.705Z,10.10
2019-03-24T10:13:46.925Z,10.20
2019-03-24T10:16:17.217Z,10.30
2019-03-24T10:18:47.457Z,10.40
2019-03-24T10:21:17.757Z,10.50
2019-03-24T10:23:47.977Z,10.50
2019-03-24T10:26:18.174Z,10.60
2019-03-24T10:28:48.796Z,10.60
2019-03-24T10:31:19.492Z,10.70
2019-03-24T10:33:49.717Z,10.70
2019-03-24T10:36:20.015Z,10.70
2019-03-24T10:38:50.435Z,10.80
2019-03-24T10:41:20.825Z,10.90
2019-03-24T10:43:51.243Z,10.90
2019-03-24T10:46:21.445Z,11.00
2019-03-24T10:48:51.666Z,11.10
2019-03-24T10:51:21.966Z,11.20
2019-03-24T10:53:52.192Z,11.20
2019-03-24T10:56:22.486Z,11.30
2019-03-24T10:58:52.802Z,11.30
2019-03-24T11:01:23.402Z,11.30
2019-03-24T11:03:53.689Z,11.40
2019-03-24T11:06:23.893Z,11.40
2019-03-24T11:08:54.121Z,11.50
2019-03-24T11:11:24.406Z,11.50
2019-03-24T11:13:54.626Z,11.60
2019-03-24T11:16:25.190Z,11.80
2019-03-24T11:18:55.397Z,11.80
2019-03-24T11:21:25.785Z,11.90
2019-03-24T11:23:56.071Z,11.90
2019-03-24T11:26:26.394Z,11.90
2019-03-24T11:28:56.743Z,12.00
2019-03-24T11:31:27.018Z,12.00
2019-03-24T11:33:58.145Z,12.10
2019-03-24T11:36:28.430Z,12.10
2019-03-24T11:38:59.207Z,12.10
2019-03-24T11:41:29.657Z,12.20
2019-03-24T11:43:59.848Z,12.30
2019-03-24T11:46:30.055Z,12.40
2019-03-24T11:49:00.396Z,12.50
2019-03-24T11:51:30.777Z,12.60
2019-03-24T11:54:00.969Z,12.60
2019-03-24T11:56:31.491Z,12.60
2019-03-24T11:59:01.689Z,12.70
2019-03-24T12:01:38.237Z,12.60
2019-03-24T12:04:04.209Z,12.70
2019-03-24T12:06:34.611Z,12.80
2019-03-24T12:09:06.517Z,12.90
2019-03-24T12:11:36.849Z,13.00
2019-03-24T12:14:07.278Z,13.00
2019-03-24T12:16:37.472Z,13.00
2019-03-24T12:19:07.762Z,13.10
2019-03-24T12:21:38.573Z,13.10
2019-03-24T12:24:08.842Z,13.20
2019-03-24T12:26:39.051Z,13.30
2019-03-24T12:29:09.451Z,13.40
2019-03-24T12:31:40.009Z,13.40
2019-03-24T12:34:10.189Z,13.30
2019-03-24T12:36:40.513Z,13.40
2019-03-24T12:39:10.794Z,13.50
2019-03-24T12:41:41.047Z,13.50
2019-03-24T12:44:11.248Z,13.50
2019-03-24T12:46:41.473Z,13.60
2019-03-24T12:49:11.761Z,13.70
2019-03-24T12:51:42.074Z,13.70
2019-03-24T12:54:12.353Z,13.70
2019-03-24T12:56:42.669Z,13.70
2019-03-24T12:59:13.075Z,13.70
2019-03-24T13:01:43.313Z,13.80
2019-03-24T13:04:13.710Z,13.80
2019-03-24T13:06:44.049Z,13.90
2019-03-24T13:09:14.241Z,13.90
2019-03-24T13:11:44.587Z,13.90
2019-03-24T13:14:14.773Z,13.90
2019-03-24T13:16:45.020Z,14.00
2019-03-24T13:19:15.746Z,14.00
2019-03-24T13:21:46.079Z,14.10
2019-03-24T13:24:16.275Z,14.10
2019-03-24T13:26:46.967Z,14.10
2019-03-24T13:29:17.491Z,14.10
2019-03-24T13:31:48.949Z,14.10
2019-03-24T13:34:19.275Z,14.10
2019-03-24T13:36:49.595Z,14.10
2019-03-24T13:39:20.002Z,14.20
2019-03-24T13:41:50.230Z,14.20
2019-03-24T13:44:20.438Z,14.20
2019-03-24T13:46:50.745Z,14.20
2019-03-24T13:49:20.950Z,14.20
2019-03-24T13:51:51.273Z,14.20
2019-03-24T13:54:21.477Z,14.20
2019-03-24T13:56:51.783Z,14.20
2019-03-24T13:59:22.251Z,14.20
2019-03-24T14:01:52.721Z,14.30
2019-03-24T14:04:23.114Z,14.30
2019-03-24T14:06:53.449Z,14.30
2019-03-24T14:09:23.809Z,14.30
2019-03-24T14:11:54.136Z,14.30
2019-03-24T14:14:24.609Z,14.30
2019-03-24T14:16:55.013Z,14.30
2019-03-24T14:19:25.420Z,14.30
2019-03-24T14:21:55.641Z,14.30
2019-03-24T14:24:25.946Z,14.40
2019-03-24T14:26:56.249Z,14.40
2019-03-24T14:29:27.268Z,14.40
2019-03-24T14:31:57.800Z,14.40
2019-03-24T14:34:28.022Z,14.50
2019-03-24T14:36:58.237Z,14.50
2019-03-24T14:39:29.934Z,14.50
2019-03-24T14:42:00.253Z,14.50
2019-03-24T14:44:30.775Z,14.50
2019-03-24T14:47:01.673Z,14.60
2019-03-24T14:49:31.993Z,14.70
2019-03-24T14:52:02.262Z,14.80
2019-03-24T14:54:32.681Z,14.90
2019-03-24T14:57:03.096Z,14.90
2019-03-24T14:59:33.353Z,15.00
2019-03-24T15:02:03.674Z,15.00
2019-03-24T15:04:33.869Z,15.00
2019-03-24T15:07:04.061Z,14.90
2019-03-24T15:09:34.294Z,14.90
2019-03-24T15:12:04.586Z,14.70
2019-03-24T15:14:34.822Z,14.60
2019-03-24T15:17:05.010Z,14.60
2019-03-24T15:19:35.206Z,14.50
2019-03-24T15:22:05.634Z,14.50
2019-03-24T15:24:36.221Z,14.30
2019-03-24T15:27:06.509Z,14.30
2019-03-24T15:29:36.830Z,14.40
2019-03-24T15:32:07.402Z,14.40
2019-03-24T15:34:37.661Z,14.40
2019-03-24T15:37:07.869Z,14.40
2019-03-24T15:39:38.085Z,14.30
2019-03-24T15:42:08.393Z,14.30
2019-03-24T15:44:38.637Z,14.30
2019-03-24T15:47:09.149Z,14.20
2019-03-24T15:49:39.481Z,14.20
2019-03-24T15:52:09.890Z,14.30
2019-03-24T15:54:40.106Z,14.20
2019-03-24T15:57:10.302Z,14.10
2019-03-24T15:59:42.163Z,14.00
2019-03-24T16:02:12.437Z,14.10
2019-03-24T16:04:42.675Z,14.10
2019-03-24T16:07:13.137Z,14.10
2019-03-24T16:09:43.359Z,14.10
2019-03-24T16:12:13.749Z,14.10
2019-03-24T16:14:43.969Z,14.10
2019-03-24T16:17:14.238Z,14.10
2019-03-24T16:19:44.582Z,14.00
2019-03-24T16:22:14.873Z,14.00
2019-03-24T16:24:45.096Z,13.90
2019-03-24T16:27:15.322Z,13.90
2019-03-24T16:29:45.657Z,13.80
2019-03-24T16:32:15.966Z,13.80
2019-03-24T16:34:46.292Z,13.70
2019-03-24T16:37:16.778Z,13.50
2019-03-24T16:39:47.330Z,13.40
2019-03-24T16:42:17.543Z,13.20
2019-03-24T16:44:47.807Z,13.10
2019-03-24T16:47:18.017Z,12.90
2019-03-24T16:49:48.342Z,12.90
2019-03-24T16:52:20.057Z,12.80
2019-03-24T16:54:50.368Z,12.70
2019-03-24T16:57:20.749Z,12.70
2019-03-24T16:59:52.001Z,12.60
2019-03-24T17:02:22.269Z,12.60
2019-03-24T17:04:52.657Z,12.50
2019-03-24T17:07:24.431Z,12.50
2019-03-24T17:09:54.589Z,12.50
2019-03-24T17:12:24.778Z,12.50
2019-03-24T17:14:55.102Z,12.40
2019-03-24T17:17:25.310Z,12.40
2019-03-24T17:19:55.649Z,12.40
2019-03-24T17:22:25.838Z,12.40
2019-03-24T17:24:56.053Z,12.30
2019-03-24T17:27:26.341Z,12.20
2019-03-24T17:29:56.876Z,12.10
2019-03-24T17:32:27.061Z,12.10
2019-03-24T17:34:57.281Z,12.00
2019-03-24T17:37:29.900Z,12.00
2019-03-24T17:39:59.397Z,11.80
2019-03-24T17:42:29.686Z,11.80
2019-03-24T17:45:01.410Z,11.80
2019-03-24T17:47:31.730Z,11.70
2019-03-24T17:50:02.137Z,11.70
2019-03-24T17:52:32.566Z,11.60
2019-03-24T17:55:02.805Z,11.60
2019-03-24T17:57:33.093Z,11.60
2019-03-24T18:00:05.687Z,11.60
2019-03-24T18:02:36.015Z,11.60
2019-03-24T18:05:07.170Z,11.50
2019-03-24T18:07:37.353Z,11.50
2019-03-24T18:10:10.218Z,11.50
2019-03-24T18:12:40.412Z,11.40
2019-03-24T18:15:11.369Z,11.40
2019-03-24T18:17:41.565Z,11.40
2019-03-24T18:20:13.600Z,11.30
2019-03-24T18:22:44.083Z,11.30
2019-03-24T18:25:14.818Z,11.20
2019-03-24T18:27:46.804Z,11.20
2019-03-24T18:30:17.501Z,11.10
2019-03-24T18:32:47.897Z,11.10
2019-03-24T18:35:18.292Z,11.00
2019-03-24T18:37:48.490Z,10.90
2019-03-24T18:40:19.341Z,10.90
2019-03-24T18:42:49.542Z,10.80
2019-03-24T18:45:20.701Z,10.80
2019-03-24T18:47:50.895Z,10.80
2019-03-24T18:50:21.122Z,10.70
2019-03-24T18:52:51.750Z,10.70
2019-03-24T18:55:22.174Z,10.70
2019-03-24T18:57:52.977Z,10.60
2019-03-24T19:00:23.410Z,10.60
2019-03-24T19:02:53.783Z,10.50
2019-03-24T19:05:24.007Z,10.50
2019-03-24T19:07:54.307Z,10.40
2019-03-24T19:10:24.774Z,10.40
2019-03-24T19:12:55.183Z,10.40
2019-03-24T19:15:25.447Z,10.40
2019-03-24T19:17:55.645Z,10.40
2019-03-24T19:20:25.997Z,10.40
2019-03-24T19:22:56.361Z,10.30
2019-03-24T19:25:26.610Z,10.40
2019-03-24T19:27:57.236Z,10.40
2019-03-24T19:30:38.433Z,10.30
2019-03-24T19:33:09.032Z,10.30
2019-03-24T19:35:39.954Z,10.20
2019-03-24T19:38:10.265Z,10.20
2019-03-24T19:40:40.898Z,10.20
2019-03-24T19:43:11.182Z,10.10
2019-03-24T19:45:41.665Z,10.10
2019-03-24T19:48:12.770Z,10.10
2019-03-24T19:50:43.145Z,10.10
2019-03-24T19:53:16.116Z,10.00
2019-03-24T19:56:07.080Z,10.00
2019-03-24T19:58:37.334Z,9.90
2019-03-24T20:01:07.689Z,9.90
2019-03-24T20:03:37.951Z,9.80
2019-03-24T20:06:08.260Z,9.70
2019-03-24T20:08:38.460Z,9.70
2019-03-24T20:11:08.701Z,9.70
2019-03-24T20:13:38.862Z,9.60
2019-03-24T20:16:09.082Z,9.60
2019-03-24T20:18:39.519Z,9.50
2019-03-24T20:21:10.050Z,9.50
2019-03-24T20:23:40.335Z,9.50
2019-03-24T20:26:12.773Z,9.50
2019-03-24T20:28:42.969Z,9.40
2019-03-24T20:31:13.495Z,9.40
2019-03-24T20:33:43.685Z,9.40
2019-03-24T20:36:13.927Z,9.30
2019-03-24T20:38:44.369Z,9.30
2019-03-24T20:41:14.898Z,9.30
2019-03-24T20:43:46.533Z,9.20
2019-03-24T20:46:17.093Z,9.20
2019-03-24T20:48:47.401Z,9.20
2019-03-24T20:51:17.806Z,9.10
2019-03-24T20:53:48.155Z,9.10
2019-03-24T20:56:18.433Z,9.00
2019-03-24T20:58:48.789Z,9.00
2019-03-24T21:01:20.484Z,8.90
2019-03-24T21:03:51.563Z,8.80
2019-03-24T21:06:32.093Z,8.80
2019-03-24T21:09:06.023Z,8.80
2019-03-24T21:11:37.650Z,8.80
2019-03-24T21:14:11.023Z,8.80
2019-03-24T21:16:44.212Z,8.80
2019-03-24T21:19:14.964Z,8.90
2019-03-24T21:21:45.470Z,8.90
2019-03-24T21:24:18.114Z,8.90
2019-03-24T21:26:49.263Z,8.90
2019-03-24T21:29:20.350Z,8.90
2019-03-24T21:31:51.318Z,9.00
2019-03-24T21:34:21.965Z,9.00
2019-03-24T21:36:53.285Z,8.90
2019-03-24T21:39:24.099Z,8.90
2019-03-24T21:41:54.970Z,8.90
2019-03-24T21:44:26.100Z,9.00
2019-03-24T21:47:00.059Z,9.00
2019-03-24T21:49:30.998Z,9.00
2019-03-24T21:52:03.824Z,9.00
2019-03-24T21:54:37.065Z,9.00
2019-03-24T21:57:09.308Z,9.00
2019-03-24T21:59:43.928Z,9.00
2019-03-24T22:02:14.482Z,9.00
2019-03-24T22:04:44.795Z,9.00
2019-03-24T22:07:16.501Z,9.00
2019-03-24T22:09:46.858Z,9.00
2019-03-24T22:12:17.286Z,8.90
2019-03-24T22:14:47.478Z,8.90
2019-03-24T22:17:17.810Z,9.00
2019-03-24T22:19:48.176Z,9.00
2019-03-24T22:22:18.778Z,9.00
2019-03-24T22:24:49.189Z,9.00
2019-03-24T22:27:19.475Z,9.00
2019-03-24T22:29:50.262Z,9.00
2019-03-24T22:32:20.445Z,9.00
2019-03-24T22:34:50.661Z,9.00
2019-03-24T22:37:21.367Z,9.00
2019-03-24T22:39:51.682Z,9.00
2019-03-24T22:42:21.971Z,9.00
2019-03-24T22:44:52.281Z,9.00
2019-03-24T22:47:22.672Z,9.10
2019-03-24T22:49:52.896Z,9.10
2019-03-24T22:52:23.181Z,9.10
2019-03-24T22:54:53.398Z,9.10
2019-03-24T22:57:23.689Z,9.10
2019-03-24T22:59:54.008Z,9.10
2019-03-24T23:02:24.534Z,9.10
2019-03-24T23:04:55.858Z,9.10
2019-03-24T23:07:26.346Z,9.10
2019-03-24T23:09:56.730Z,9.20
2019-03-24T23:12:27.417Z,9.20
2019-03-24T23:14:57.830Z,9.20
2019-03-24T23:17:28.025Z,9.10
2019-03-24T23:19:58.246Z,9.10
2019-03-24T23:22:28.438Z,9.20
2019-03-24T23:24:58.730Z,9.20
2019-03-24T23:27:28.920Z,9.20
2019-03-24T23:29:59.241Z,9.20
2019-03-24T23:32:29.625Z,9.20
2019-03-24T23:35:00.042Z,9.20
2019-03-24T23:37:30.226Z,9.20
2019-03-24T23:40:00.435Z,9.20
2019-03-24T23:42:30.713Z,9.20
2019-03-24T23:45:01.132Z,9.20
2019-03-24T23:47:32.942Z,9.20
2019-03-24T23:50:04.066Z,9.20
2019-03-24T23:52:34.229Z,9.20
2019-03-24T23:55:05.497Z,9.20
2019-03-24T23:57:37.460Z,9.20
